ADDS METAR Data INFO
IDs: Format: Raw Decoded Include TAF

Data at: 0153 UTC 17 Oct 2017

KECG 170054Z 34013KT 10SM OVC065 16/10 A3014 RMK AO2 SLP206 T01560100
KECG 162354Z 35011KT 10SM OVC055 16/11 A3012 RMK AO2 SLP200 60019 T01560111 10183 20156 53019
KECG 162254Z 34012KT 10SM OVC049 16/13 A3009 RMK AO2 RAE2159 SLP189 P0000 T01560128
KECG 162154Z 34011KT 10SM -RA OVC041 16/13 A3007 RMK AO2 SLP182 P0001 T01560133
KECG 162120Z 36012KT 10SM -RA SCT030 OVC037 16/13 A3005 RMK AO2 P0001 T01560133
KECG 162054Z 34010KT 10SM -RA OVC028 16/14 A3007 RMK AO2 SLP181 P0003 60018 T01560144 53014
KECG 162016Z 36015KT 8SM -RA SCT013 SCT021 OVC026 16/14 A3004 RMK AO2 P0002 T01610144
KECG 161954Z 33013KT 10SM -RA BKN011 BKN016 OVC029 17/16 A3005 RMK AO2 RAB17E29B42 PRESRR SLP176 P0001 T01670156
KECG 161934Z 35013KT 10SM BKN011 BKN024 OVC029 17/16 A3002 RMK AO2 RAB17E29 P0000 T01670156
KECG 161854Z 34016KT 10SM BKN021 OVC026 17/16 A3003 RMK AO2 RAE54 SLP168 P0014 T01670156
KECG 161821Z 35013KT 3SM RA BR SCT018 OVC023 17/16 A3002 RMK AO2 P0014 T01720161
KECG 161812Z 01013KT 1 3/4SM +RA BR BKN018 OVC024 17/16 A3002 RMK AO2 P0010 T01720156
KECG 161754Z 35013KT 10SM -RA OVC019 18/15 A3003 RMK AO2 RAB54 SLP167 P0000 60000 T01830150 10228 20183 51002
KECG 161715Z 35016KT 10SM OVC016 18/16 A3002 RMK AO2 T01830156
KECG 161654Z 36014G21KT 10SM BKN012 OVC024 19/17 A3003 RMK AO2 SLP167 T01890167
KECG 161554Z 01013G21KT 10SM OVC014 19/17 A3002 RMK AO2 SLP165 T01940172
KECG 161454Z 35012G19KT 10SM OVC018 19/17 A3002 RMK AO2 PK WND 34028/1406 WSHFT 1353 SLP164 T01940172 53018
KECG 161436Z 36012KT 10SM OVC016 19/17 A3001 RMK AO2 PK WND 34028/1406 WSHFT 1353 T01940172
KECG 161413Z 35020G28KT 10SM OVC012 19/17 A3001 RMK AO2 PK WND 34028/1406 WSHFT 1353 T01890172
KECG 161402Z 34019G27KT 10SM BKN014 OVC025 22/21 A3001 RMK AO2 PK WND 31027/1401 T02170206
KECG 161354Z 29010KT 10SM SCT016 BKN025 OVC035 22/21 A3000 RMK AO2 SLP158 T02220211
KECG 161254Z 24008KT 10SM BKN025 BKN033 22/21 A2998 RMK AO2 SLP153 T02170206
KECG 161154Z 23008KT 10SM FEW033 SCT040 21/21 A2996 RMK AO2 SLP146 T02060206 10211 20189 53005
KECG 161054Z AUTO 20007KT 10SM CLR 20/20 A2996 RMK AO2 SLP144 T02000200
KECG 160954Z AUTO 21006KT 10SM CLR 20/19 A2996 RMK AO2 SLP143 T02000194
KECG 160854Z AUTO 23007KT 10SM CLR 19/19 A2995 RMK AO2 SLP142 T01940194 56006
KECG 160754Z AUTO 23006KT 10SM CLR 20/20 A2995 RMK AO2 SLP143 T02000200
KECG 160654Z AUTO 23009KT 10SM CLR 21/21 A2996 RMK AO2 SLP146 T02110211
KECG 160554Z AUTO 21010KT 10SM CLR 21/21 A2997 RMK AO2 SLP148 T02110211 10239 20211 58006
KECG 160454Z AUTO 21009KT 10SM CLR 21/21 A2998 RMK AO2 SLP152 T02110211 402670189
KECG 160354Z AUTO 20010KT 10SM CLR 22/21 A2999 RMK AO2 SLP154 T02170211
KECG 160254Z AUTO 19012KT 10SM CLR 22/21 A2999 RMK AO2 SLP154 T02220211 58008
KECG 160154Z AUTO 19011KT 10SM CLR 23/21 A3000 RMK AO2 SLP159 T02280211
KECG 160054Z AUTO 19009KT 10SM CLR 23/21 A3001 RMK AO2 SLP160 T02280211
KECG 152354Z AUTO 18008KT 10SM CLR 23/21 A3001 RMK AO2 SLP162 T02330211 10267 20233 55003
KECG 152254Z AUTO 18007KT 10SM CLR 24/21 A3001 RMK AO2 SLP160 T02390206
KECG 152154Z AUTO 19009KT 10SM CLR 26/20 A3001 RMK AO2 SLP161 T02560200
KECG 152054Z AUTO 20009KT 10SM CLR 27/21 A3002 RMK AO2 SLP165 T02670206 56021
KECG 151954Z AUTO 20009KT 10SM CLR 27/20 A3003 RMK AO2 SLP169 T02670200
KECG 151854Z 20010KT 10SM CLR 26/20 A3005 RMK AO2 SLP175 T02610200
KECG 151754Z 19011KT 10SM FEW022 25/21 A3008 RMK AO2 SLP185 T02500206 10250 20200 58028
KECG 151718Z 22011KT 10SM SCT017 24/21 A3010 RMK AO2 T02440206
KECG 151654Z 20011KT 10SM OVC016 24/20 A3012 RMK AO2 SLP199 T02390200
KECG 151619Z 22010KT 10SM OVC011 22/21 A3014 RMK AO2 T02220206
KECG 151554Z 22008KT 10SM OVC008 22/20 A3015 RMK AO2 SLP209 T02170200
KECG 151454Z 21009KT 10SM OVC007 21/20 A3016 RMK AO2 SLP214 T02060200 58003
KECG 151354Z 23008KT 10SM OVC008 21/20 A3018 RMK AO2 CIG 007V013 SLP218 T02060200